sensor_id;sensor_type;location;lat;lon;timestamp;P1;durP1;ratioP1;P2;durP2;ratioP2
12774;SDS011;6451;42.630;23.382;2022-12-11T00:02:09;15.17;;;8.70;;
12774;SDS011;6451;42.630;23.382;2022-12-11T00:04:36;12.37;;;8.30;;
12774;SDS011;6451;42.630;23.382;2022-12-11T00:07:03;12.33;;;7.87;;
12774;SDS011;6451;42.630;23.382;2022-12-11T00:09:31;10.37;;;7.93;;
12774;SDS011;6451;42.630;23.382;2022-12-11T00:11:58;10.83;;;8.23;;
12774;SDS011;6451;42.630;23.382;2022-12-11T00:14:26;12.10;;;8.30;;
12774;SDS011;6451;42.630;23.382;2022-12-11T00:16:53;10.20;;;7.80;;
12774;SDS011;6451;42.630;23.382;2022-12-11T00:19:21;12.90;;;8.27;;
12774;SDS011;6451;42.630;23.382;2022-12-11T00:21:48;15.70;;;8.93;;
12774;SDS011;6451;42.630;23.382;2022-12-11T00:24:15;12.03;;;8.30;;
12774;SDS011;6451;42.630;23.382;2022-12-11T00:26:45;13.30;;;9.23;;
12774;SDS011;6451;42.630;23.382;2022-12-11T00:29:12;13.37;;;10.73;;
12774;SDS011;6451;42.630;23.382;2022-12-11T00:31:40;16.63;;;11.30;;
12774;SDS011;6451;42.630;23.382;2022-12-11T00:34:07;14.67;;;11.80;;
12774;SDS011;6451;42.630;23.382;2022-12-11T00:36:36;13.07;;;10.43;;
12774;SDS011;6451;42.630;23.382;2022-12-11T00:39:04;18.00;;;11.80;;
12774;SDS011;6451;42.630;23.382;2022-12-11T00:41:31;18.03;;;12.33;;
12774;SDS011;6451;42.630;23.382;2022-12-11T00:43:59;16.20;;;9.80;;
12774;SDS011;6451;42.630;23.382;2022-12-11T00:46:26;14.80;;;11.77;;
12774;SDS011;6451;42.630;23.382;2022-12-11T00:48:53;26.90;;;18.47;;
12774;SDS011;6451;42.630;23.382;2022-12-11T00:51:20;23.77;;;16.40;;
12774;SDS011;6451;42.630;23.382;2022-12-11T00:53:46;18.13;;;13.80;;
12774;SDS011;6451;42.630;23.382;2022-12-11T00:56:15;18.03;;;13.07;;
12774;SDS011;6451;42.630;23.382;2022-12-11T00:58:44;16.97;;;12.00;;
12774;SDS011;6451;42.630;23.382;2022-12-11T01:01:13;19.53;;;12.73;;
12774;SDS011;6451;42.630;23.382;2022-12-11T01:03:42;17.03;;;11.67;;
12774;SDS011;6451;42.630;23.382;2022-12-11T01:06:11;15.70;;;11.73;;
12774;SDS011;6451;42.630;23.382;2022-12-11T01:08:40;15.23;;;10.90;;
12774;SDS011;6451;42.630;23.382;2022-12-11T01:11:08;15.60;;;12.47;;
12774;SDS011;6451;42.630;23.382;2022-12-11T01:13:35;14.43;;;11.13;;
12774;SDS011;6451;42.630;23.382;2022-12-11T01:16:06;16.83;;;11.07;;
12774;SDS011;6451;42.630;23.382;2022-12-11T01:18:36;16.50;;;10.40;;
12774;SDS011;6451;42.630;23.382;2022-12-11T01:21:06;16.13;;;11.97;;
12774;SDS011;6451;42.630;23.382;2022-12-11T01:23:35;16.97;;;10.90;;
12774;SDS011;6451;42.630;23.382;2022-12-11T01:26:06;15.80;;;10.50;;
12774;SDS011;6451;42.630;23.382;2022-12-11T01:28:34;13.47;;;10.70;;
12774;SDS011;6451;42.630;23.382;2022-12-11T01:31:01;15.30;;;10.90;;
12774;SDS011;6451;42.630;23.382;2022-12-11T01:33:28;16.10;;;10.70;;
12774;SDS011;6451;42.630;23.382;2022-12-11T01:35:57;14.97;;;10.03;;
12774;SDS011;6451;42.630;23.382;2022-12-11T01:38:24;18.07;;;11.10;;
12774;SDS011;6451;42.630;23.382;2022-12-11T01:40:52;14.53;;;9.50;;
12774;SDS011;6451;42.630;23.382;2022-12-11T01:43:19;13.27;;;9.23;;
12774;SDS011;6451;42.630;23.382;2022-12-11T01:45:46;14.50;;;9.13;;
12774;SDS011;6451;42.630;23.382;2022-12-11T01:48:16;15.27;;;10.43;;
12774;SDS011;6451;42.630;23.382;2022-12-11T01:50:46;14.00;;;10.10;;
12774;SDS011;6451;42.630;23.382;2022-12-11T01:53:18;15.33;;;9.93;;
12774;SDS011;6451;42.630;23.382;2022-12-11T01:55:48;16.33;;;11.70;;
12774;SDS011;6451;42.630;23.382;2022-12-11T01:58:18;20.70;;;14.57;;
12774;SDS011;6451;42.630;23.382;2022-12-11T02:00:48;18.50;;;13.87;;
12774;SDS011;6451;42.630;23.382;2022-12-11T02:03:17;21.10;;;14.03;;
12774;SDS011;6451;42.630;23.382;2022-12-11T02:05:43;21.13;;;14.37;;
12774;SDS011;6451;42.630;23.382;2022-12-11T02:08:10;10.80;;;7.00;;
12774;SDS011;6451;42.630;23.382;2022-12-11T02:10:42;13.80;;;7.80;;
12774;SDS011;6451;42.630;23.382;2022-12-11T02:13:20;12.03;;;8.07;;
12774;SDS011;6451;42.630;23.382;2022-12-11T02:15:57;7.40;;;3.07;;
12774;SDS011;6451;42.630;23.382;2022-12-11T02:18:33;10.77;;;8.70;;
12774;SDS011;6451;42.630;23.382;2022-12-11T02:21:06;6.70;;;4.97;;
12774;SDS011;6451;42.630;23.382;2022-12-11T02:23:45;8.13;;;4.10;;
12774;SDS011;6451;42.630;23.382;2022-12-11T02:26:32;6.50;;;4.83;;
12774;SDS011;6451;42.630;23.382;2022-12-11T02:29:14;6.20;;;4.57;;
12774;SDS011;6451;42.630;23.382;2022-12-11T02:31:45;5.13;;;3.50;;
12774;SDS011;6451;42.630;23.382;2022-12-11T02:34:19;4.23;;;2.90;;
12774;SDS011;6451;42.630;23.382;2022-12-11T02:36:56;4.40;;;2.80;;
12774;SDS011;6451;42.630;23.382;2022-12-11T02:39:27;5.83;;;3.07;;
12774;SDS011;6451;42.630;23.382;2022-12-11T02:41:55;3.50;;;2.20;;
12774;SDS011;6451;42.630;23.382;2022-12-11T02:44:26;4.50;;;2.00;;
12774;SDS011;6451;42.630;23.382;2022-12-11T02:46:57;2.27;;;1.80;;
12774;SDS011;6451;42.630;23.382;2022-12-11T02:49:25;3.45;;;2.00;;
12774;SDS011;6451;42.630;23.382;2022-12-11T02:51:53;3.72;;;2.28;;
12774;SDS011;6451;42.630;23.382;2022-12-11T02:54:22;3.45;;;2.50;;
12774;SDS011;6451;42.630;23.382;2022-12-11T02:56:53;2.92;;;2.63;;
12774;SDS011;6451;42.630;23.382;2022-12-11T02:59:29;5.57;;;2.70;;
12774;SDS011;6451;42.630;23.382;2022-12-11T03:02:01;4.95;;;2.20;;
12774;SDS011;6451;42.630;23.382;2022-12-11T03:04:28;5.03;;;2.35;;
12774;SDS011;6451;42.630;23.382;2022-12-11T03:06:57;2.80;;;2.20;;
12774;SDS011;6451;42.630;23.382;2022-12-11T03:09:36;2.80;;;1.50;;
12774;SDS011;6451;42.630;23.382;2022-12-11T03:12:03;1.73;;;1.30;;
12774;SDS011;6451;42.630;23.382;2022-12-11T03:14:32;2.25;;;1.48;;
12774;SDS011;6451;42.630;23.382;2022-12-11T03:17:02;2.70;;;1.60;;
12774;SDS011;6451;42.630;23.382;2022-12-11T03:19:34;2.13;;;1.70;;
12774;SDS011;6451;42.630;23.382;2022-12-11T03:22:08;2.67;;;1.67;;
12774;SDS011;6451;42.630;23.382;2022-12-11T03:24:37;2.03;;;1.50;;
12774;SDS011;6451;42.630;23.382;2022-12-11T03:27:11;2.25;;;1.30;;
12774;SDS011;6451;42.630;23.382;2022-12-11T03:29:48;2.08;;;1.10;;
12774;SDS011;6451;42.630;23.382;2022-12-11T03:32:21;1.70;;;1.20;;
12774;SDS011;6451;42.630;23.382;2022-12-11T03:34:54;3.65;;;1.35;;
12774;SDS011;6451;42.630;23.382;2022-12-11T03:37:29;2.95;;;1.13;;
12774;SDS011;6451;42.630;23.382;2022-12-11T03:40:00;2.28;;;1.10;;
12774;SDS011;6451;42.630;23.382;2022-12-11T03:42:32;2.97;;;1.20;;
12774;SDS011;6451;42.630;23.382;2022-12-11T03:45:02;1.27;;;1.10;;
12774;SDS011;6451;42.630;23.382;2022-12-11T03:47:31;1.27;;;1.17;;
12774;SDS011;6451;42.630;23.382;2022-12-11T03:49:58;2.17;;;1.20;;
12774;SDS011;6451;42.630;23.382;2022-12-11T03:52:27;2.13;;;1.20;;
12774;SDS011;6451;42.630;23.382;2022-12-11T03:54:55;1.48;;;1.20;;
12774;SDS011;6451;42.630;23.382;2022-12-11T03:57:28;1.13;;;1.02;;
12774;SDS011;6451;42.630;23.382;2022-12-11T04:00:03;3.63;;;1.40;;
12774;SDS011;6451;42.630;23.382;2022-12-11T04:02:31;3.53;;;1.30;;
12774;SDS011;6451;42.630;23.382;2022-12-11T04:04:59;1.35;;;1.25;;
12774;SDS011;6451;42.630;23.382;2022-12-11T04:07:26;1.10;;;1.00;;
12774;SDS011;6451;42.630;23.382;2022-12-11T04:09:55;1.15;;;0.90;;
12774;SDS011;6451;42.630;23.382;2022-12-11T04:12:23;3.03;;;0.82;;
12774;SDS011;6451;42.630;23.382;2022-12-11T04:14:50;2.65;;;0.88;;
12774;SDS011;6451;42.630;23.382;2022-12-11T04:17:29;0.80;;;0.80;;
12774;SDS011;6451;42.630;23.382;2022-12-11T04:20:15;4.10;;;0.90;;
12774;SDS011;6451;42.630;23.382;2022-12-11T04:23:02;1.77;;;0.90;;
12774;SDS011;6451;42.630;23.382;2022-12-11T04:26:02;2.15;;;1.02;;
12774;SDS011;6451;42.630;23.382;2022-12-11T04:28:30;2.53;;;0.95;;
12774;SDS011;6451;42.630;23.382;2022-12-11T04:30:57;0.95;;;0.80;;
12774;SDS011;6451;42.630;23.382;2022-12-11T04:33:25;2.75;;;1.00;;
12774;SDS011;6451;42.630;23.382;2022-12-11T04:35:53;1.85;;;1.17;;
12774;SDS011;6451;42.630;23.382;2022-12-11T04:38:20;2.88;;;1.10;;
12774;SDS011;6451;42.630;23.382;2022-12-11T04:40:47;1.10;;;0.80;;
12774;SDS011;6451;42.630;23.382;2022-12-11T04:43:13;1.63;;;1.00;;
12774;SDS011;6451;42.630;23.382;2022-12-11T04:45:40;0.95;;;0.85;;
12774;SDS011;6451;42.630;23.382;2022-12-11T04:48:07;1.27;;;0.90;;
12774;SDS011;6451;42.630;23.382;2022-12-11T04:50:36;1.55;;;0.93;;
12774;SDS011;6451;42.630;23.382;2022-12-11T04:53:03;4.18;;;1.00;;
12774;SDS011;6451;42.630;23.382;2022-12-11T04:55:31;1.10;;;0.95;;
12774;SDS011;6451;42.630;23.382;2022-12-11T04:57:58;2.00;;;1.08;;
12774;SDS011;6451;42.630;23.382;2022-12-11T05:00:25;2.13;;;0.90;;
12774;SDS011;6451;42.630;23.382;2022-12-11T05:02:52;1.35;;;0.70;;
12774;SDS011;6451;42.630;23.382;2022-12-11T05:05:37;1.30;;;0.63;;
12774;SDS011;6451;42.630;23.382;2022-12-11T05:08:04;2.42;;;0.70;;
12774;SDS011;6451;42.630;23.382;2022-12-11T05:10:32;2.20;;;1.10;;
12774;SDS011;6451;42.630;23.382;2022-12-11T05:12:59;1.17;;;0.65;;
12774;SDS011;6451;42.630;23.382;2022-12-11T05:15:26;1.83;;;0.75;;
12774;SDS011;6451;42.630;23.382;2022-12-11T05:17:52;2.35;;;0.70;;
12774;SDS011;6451;42.630;23.382;2022-12-11T05:20:20;2.47;;;0.82;;
12774;SDS011;6451;42.630;23.382;2022-12-11T05:22:49;0.80;;;0.70;;
12774;SDS011;6451;42.630;23.382;2022-12-11T05:25:16;2.70;;;0.70;;
12774;SDS011;6451;42.630;23.382;2022-12-11T05:27:43;2.97;;;0.80;;
12774;SDS011;6451;42.630;23.382;2022-12-11T05:30:10;1.88;;;0.82;;
12774;SDS011;6451;42.630;23.382;2022-12-11T05:32:37;2.35;;;0.95;;
12774;SDS011;6451;42.630;23.382;2022-12-11T05:35:04;0.82;;;0.55;;
12774;SDS011;6451;42.630;23.382;2022-12-11T05:37:31;1.70;;;0.77;;
12774;SDS011;6451;42.630;23.382;2022-12-11T05:40:00;1.80;;;0.70;;
12774;SDS011;6451;42.630;23.382;2022-12-11T05:42:30;1.13;;;0.82;;
12774;SDS011;6451;42.630;23.382;2022-12-11T05:44:58;1.95;;;0.80;;
12774;SDS011;6451;42.630;23.382;2022-12-11T05:47:25;1.48;;;0.75;;
12774;SDS011;6451;42.630;23.382;2022-12-11T05:49:53;0.70;;;0.70;;
12774;SDS011;6451;42.630;23.382;2022-12-11T05:52:20;2.00;;;0.80;;
12774;SDS011;6451;42.630;23.382;2022-12-11T05:54:47;2.47;;;0.80;;
12774;SDS011;6451;42.630;23.382;2022-12-11T05:57:16;1.70;;;0.77;;
12774;SDS011;6451;42.630;23.382;2022-12-11T05:59:44;1.30;;;0.90;;
12774;SDS011;6451;42.630;23.382;2022-12-11T06:02:10;2.08;;;0.90;;
12774;SDS011;6451;42.630;23.382;2022-12-11T06:04:37;3.42;;;0.90;;
12774;SDS011;6451;42.630;23.382;2022-12-11T06:07:05;1.90;;;0.70;;
12774;SDS011;6451;42.630;23.382;2022-12-11T06:09:32;2.67;;;0.95;;
12774;SDS011;6451;42.630;23.382;2022-12-11T06:11:59;2.10;;;0.73;;
12774;SDS011;6451;42.630;23.382;2022-12-11T06:14:28;1.50;;;0.90;;
12774;SDS011;6451;42.630;23.382;2022-12-11T06:16:55;1.48;;;0.70;;
12774;SDS011;6451;42.630;23.382;2022-12-11T06:19:21;1.58;;;0.70;;
12774;SDS011;6451;42.630;23.382;2022-12-11T06:21:49;3.10;;;0.85;;
12774;SDS011;6451;42.630;23.382;2022-12-11T06:24:17;1.83;;;0.80;;
12774;SDS011;6451;42.630;23.382;2022-12-11T06:26:44;1.20;;;0.98;;
12774;SDS011;6451;42.630;23.382;2022-12-11T06:29:11;2.95;;;0.90;;
12774;SDS011;6451;42.630;23.382;2022-12-11T06:31:39;1.92;;;1.20;;
12774;SDS011;6451;42.630;23.382;2022-12-11T06:34:08;3.00;;;1.10;;
12774;SDS011;6451;42.630;23.382;2022-12-11T06:36:36;1.45;;;0.90;;
12774;SDS011;6451;42.630;23.382;2022-12-11T06:39:03;3.03;;;1.00;;
12774;SDS011;6451;42.630;23.382;2022-12-11T06:41:30;2.03;;;1.00;;
12774;SDS011;6451;42.630;23.382;2022-12-11T06:43:57;1.83;;;0.80;;
12774;SDS011;6451;42.630;23.382;2022-12-11T06:46:24;1.10;;;0.77;;
12774;SDS011;6451;42.630;23.382;2022-12-11T06:48:52;1.02;;;0.70;;
12774;SDS011;6451;42.630;23.382;2022-12-11T06:51:20;1.42;;;0.82;;
12774;SDS011;6451;42.630;23.382;2022-12-11T06:53:49;2.30;;;0.80;;
12774;SDS011;6451;42.630;23.382;2022-12-11T06:56:17;0.95;;;0.70;;
12774;SDS011;6451;42.630;23.382;2022-12-11T06:58:44;3.40;;;0.95;;
12774;SDS011;6451;42.630;23.382;2022-12-11T07:01:12;0.93;;;0.60;;
12774;SDS011;6451;42.630;23.382;2022-12-11T07:03:42;3.75;;;1.05;;
12774;SDS011;6451;42.630;23.382;2022-12-11T07:06:11;3.22;;;0.80;;
12774;SDS011;6451;42.630;23.382;2022-12-11T07:08:38;1.63;;;0.90;;
12774;SDS011;6451;42.630;23.382;2022-12-11T07:11:06;1.42;;;0.90;;
12774;SDS011;6451;42.630;23.382;2022-12-11T07:13:33;2.45;;;0.95;;
12774;SDS011;6451;42.630;23.382;2022-12-11T07:16:01;1.70;;;0.90;;
12774;SDS011;6451;42.630;23.382;2022-12-11T07:18:30;2.22;;;0.90;;
12774;SDS011;6451;42.630;23.382;2022-12-11T07:20:57;3.30;;;1.08;;
12774;SDS011;6451;42.630;23.382;2022-12-11T07:23:26;1.83;;;0.90;;
12774;SDS011;6451;42.630;23.382;2022-12-11T07:25:54;2.22;;;1.08;;
12774;SDS011;6451;42.630;23.382;2022-12-11T07:28:21;1.60;;;1.10;;
12774;SDS011;6451;42.630;23.382;2022-12-11T07:30:48;3.10;;;1.00;;
12774;SDS011;6451;42.630;23.382;2022-12-11T07:33:15;1.30;;;0.82;;
12774;SDS011;6451;42.630;23.382;2022-12-11T07:35:43;1.90;;;1.00;;
12774;SDS011;6451;42.630;23.382;2022-12-11T07:38:10;2.95;;;1.20;;
12774;SDS011;6451;42.630;23.382;2022-12-11T07:40:39;3.00;;;1.00;;
12774;SDS011;6451;42.630;23.382;2022-12-11T07:43:06;4.15;;;1.00;;
12774;SDS011;6451;42.630;23.382;2022-12-11T07:45:36;2.35;;;1.20;;
12774;SDS011;6451;42.630;23.382;2022-12-11T07:48:03;1.85;;;1.00;;
12774;SDS011;6451;42.630;23.382;2022-12-11T07:50:30;2.60;;;0.90;;
12774;SDS011;6451;42.630;23.382;2022-12-11T07:52:57;2.42;;;1.55;;
12774;SDS011;6451;42.630;23.382;2022-12-11T07:55:24;3.38;;;1.42;;
12774;SDS011;6451;42.630;23.382;2022-12-11T07:57:52;2.30;;;0.90;;
12774;SDS011;6451;42.630;23.382;2022-12-11T08:00:19;1.65;;;1.30;;
12774;SDS011;6451;42.630;23.382;2022-12-11T08:02:47;3.00;;;1.90;;
12774;SDS011;6451;42.630;23.382;2022-12-11T08:05:13;4.15;;;1.45;;
12774;SDS011;6451;42.630;23.382;2022-12-11T08:07:41;1.95;;;1.30;;
12774;SDS011;6451;42.630;23.382;2022-12-11T08:10:08;3.58;;;1.20;;
12774;SDS011;6451;42.630;23.382;2022-12-11T08:12:35;2.78;;;1.20;;
12774;SDS011;6451;42.630;23.382;2022-12-11T08:15:04;2.25;;;1.00;;
12774;SDS011;6451;42.630;23.382;2022-12-11T08:17:32;3.65;;;1.33;;
12774;SDS011;6451;42.630;23.382;2022-12-11T08:19:58;2.50;;;1.20;;
12774;SDS011;6451;42.630;23.382;2022-12-11T08:22:29;2.72;;;1.70;;
12774;SDS011;6451;42.630;23.382;2022-12-11T08:25:02;3.33;;;1.00;;
12774;SDS011;6451;42.630;23.382;2022-12-11T08:27:29;2.63;;;0.80;;
12774;SDS011;6451;42.630;23.382;2022-12-11T08:29:56;2.60;;;1.10;;
12774;SDS011;6451;42.630;23.382;2022-12-11T08:32:24;2.72;;;1.20;;
12774;SDS011;6451;42.630;23.382;2022-12-11T08:34:51;2.50;;;1.20;;
12774;SDS011;6451;42.630;23.382;2022-12-11T08:37:18;1.38;;;0.90;;
12774;SDS011;6451;42.630;23.382;2022-12-11T08:39:46;2.70;;;1.10;;
12774;SDS011;6451;42.630;23.382;2022-12-11T08:42:13;2.67;;;1.10;;
12774;SDS011;6451;42.630;23.382;2022-12-11T08:44:40;3.20;;;1.40;;
12774;SDS011;6451;42.630;23.382;2022-12-11T08:47:07;2.85;;;0.90;;
12774;SDS011;6451;42.630;23.382;2022-12-11T08:49:37;2.13;;;0.85;;
12774;SDS011;6451;42.630;23.382;2022-12-11T08:52:04;2.15;;;1.00;;
12774;SDS011;6451;42.630;23.382;2022-12-11T08:54:31;2.28;;;1.23;;
12774;SDS011;6451;42.630;23.382;2022-12-11T08:56:58;1.85;;;1.02;;
12774;SDS011;6451;42.630;23.382;2022-12-11T08:59:25;2.47;;;1.33;;
12774;SDS011;6451;42.630;23.382;2022-12-11T09:02:01;2.55;;;1.05;;
12774;SDS011;6451;42.630;23.382;2022-12-11T09:04:28;1.80;;;1.00;;
12774;SDS011;6451;42.630;23.382;2022-12-11T09:06:57;2.65;;;1.15;;
12774;SDS011;6451;42.630;23.382;2022-12-11T09:09:27;3.08;;;1.30;;
12774;SDS011;6451;42.630;23.382;2022-12-11T09:11:54;3.70;;;1.20;;
12774;SDS011;6451;42.630;23.382;2022-12-11T09:14:21;3.45;;;1.60;;
12774;SDS011;6451;42.630;23.382;2022-12-11T09:16:48;4.63;;;1.48;;
12774;SDS011;6451;42.630;23.382;2022-12-11T09:19:18;4.43;;;1.73;;
12774;SDS011;6451;42.630;23.382;2022-12-11T09:21:45;4.00;;;1.50;;
12774;SDS011;6451;42.630;23.382;2022-12-11T09:24:13;2.72;;;1.30;;
12774;SDS011;6451;42.630;23.382;2022-12-11T09:26:43;2.85;;;1.23;;
12774;SDS011;6451;42.630;23.382;2022-12-11T09:29:11;2.70;;;1.20;;
12774;SDS011;6451;42.630;23.382;2022-12-11T09:31:43;2.38;;;1.27;;
12774;SDS011;6451;42.630;23.382;2022-12-11T09:34:11;3.50;;;1.15;;
12774;SDS011;6451;42.630;23.382;2022-12-11T09:36:39;3.15;;;1.30;;
12774;SDS011;6451;42.630;23.382;2022-12-11T09:39:10;1.45;;;0.93;;
12774;SDS011;6451;42.630;23.382;2022-12-11T09:41:43;1.45;;;1.10;;
12774;SDS011;6451;42.630;23.382;2022-12-11T09:44:29;1.65;;;1.10;;
12774;SDS011;6451;42.630;23.382;2022-12-11T09:46:59;3.67;;;1.08;;
12774;SDS011;6451;42.630;23.382;2022-12-11T09:49:30;2.63;;;1.20;;
12774;SDS011;6451;42.630;23.382;2022-12-11T09:52:09;2.72;;;1.23;;
12774;SDS011;6451;42.630;23.382;2022-12-11T09:54:42;2.28;;;1.30;;
12774;SDS011;6451;42.630;23.382;2022-12-11T09:57:17;2.28;;;1.50;;
12774;SDS011;6451;42.630;23.382;2022-12-11T09:59:58;3.55;;;1.30;;
12774;SDS011;6451;42.630;23.382;2022-12-11T10:02:39;3.55;;;1.38;;
12774;SDS011;6451;42.630;23.382;2022-12-11T10:05:16;3.80;;;1.60;;
12774;SDS011;6451;42.630;23.382;2022-12-11T10:07:55;1.88;;;1.33;;
12774;SDS011;6451;42.630;23.382;2022-12-11T10:10:30;1.48;;;1.00;;
12774;SDS011;6451;42.630;23.382;2022-12-11T10:13:09;2.40;;;1.20;;
12774;SDS011;6451;42.630;23.382;2022-12-11T10:15:43;2.53;;;1.30;;
12774;SDS011;6451;42.630;23.382;2022-12-11T10:18:17;3.05;;;1.30;;
12774;SDS011;6451;42.630;23.382;2022-12-11T10:20:47;2.85;;;1.60;;
12774;SDS011;6451;42.630;23.382;2022-12-11T10:23:15;3.13;;;1.60;;
12774;SDS011;6451;42.630;23.382;2022-12-11T10:25:45;1.80;;;1.25;;
12774;SDS011;6451;42.630;23.382;2022-12-11T10:28:18;2.10;;;1.52;;
12774;SDS011;6451;42.630;23.382;2022-12-11T10:30:47;2.55;;;1.50;;
12774;SDS011;6451;42.630;23.382;2022-12-11T10:33:17;1.70;;;1.27;;
12774;SDS011;6451;42.630;23.382;2022-12-11T10:35:49;2.17;;;1.50;;
12774;SDS011;6451;42.630;23.382;2022-12-11T10:38:20;1.80;;;1.52;;
12774;SDS011;6451;42.630;23.382;2022-12-11T10:40:51;2.85;;;1.63;;
12774;SDS011;6451;42.630;23.382;2022-12-11T10:43:32;1.85;;;1.70;;
12774;SDS011;6451;42.630;23.382;2022-12-11T10:46:00;4.03;;;1.92;;
12774;SDS011;6451;42.630;23.382;2022-12-11T10:48:27;2.47;;;1.80;;
12774;SDS011;6451;42.630;23.382;2022-12-11T10:50:58;2.40;;;1.60;;
12774;SDS011;6451;42.630;23.382;2022-12-11T10:53:28;1.55;;;1.42;;
12774;SDS011;6451;42.630;23.382;2022-12-11T10:55:56;1.80;;;1.50;;
12774;SDS011;6451;42.630;23.382;2022-12-11T10:58:25;2.22;;;1.40;;
12774;SDS011;6451;42.630;23.382;2022-12-11T11:01:01;1.80;;;1.42;;
12774;SDS011;6451;42.630;23.382;2022-12-11T11:03:31;2.13;;;1.15;;
12774;SDS011;6451;42.630;23.382;2022-12-11T11:06:01;1.63;;;1.40;;
12774;SDS011;6451;42.630;23.382;2022-12-11T11:08:36;2.72;;;1.70;;
12774;SDS011;6451;42.630;23.382;2022-12-11T11:11:05;1.45;;;1.35;;
12774;SDS011;6451;42.630;23.382;2022-12-11T11:13:33;2.13;;;1.48;;
12774;SDS011;6451;42.630;23.382;2022-12-11T11:16:02;2.47;;;1.80;;
12774;SDS011;6451;42.630;23.382;2022-12-11T11:18:32;4.10;;;1.90;;
12774;SDS011;6451;42.630;23.382;2022-12-11T11:21:00;3.17;;;1.80;;
12774;SDS011;6451;42.630;23.382;2022-12-11T11:23:27;2.17;;;1.70;;
12774;SDS011;6451;42.630;23.382;2022-12-11T11:25:55;3.25;;;1.50;;
12774;SDS011;6451;42.630;23.382;2022-12-11T11:28:24;3.70;;;1.60;;
12774;SDS011;6451;42.630;23.382;2022-12-11T11:30:55;3.10;;;1.50;;
12774;SDS011;6451;42.630;23.382;2022-12-11T11:33:26;3.28;;;1.55;;
12774;SDS011;6451;42.630;23.382;2022-12-11T11:35:54;1.73;;;1.38;;
12774;SDS011;6451;42.630;23.382;2022-12-11T11:38:24;3.03;;;1.30;;
12774;SDS011;6451;42.630;23.382;2022-12-11T11:40:55;1.70;;;1.42;;
12774;SDS011;6451;42.630;23.382;2022-12-11T11:43:30;1.60;;;1.15;;
12774;SDS011;6451;42.630;23.382;2022-12-11T11:46:03;3.83;;;2.10;;
12774;SDS011;6451;42.630;23.382;2022-12-11T11:48:39;1.77;;;1.35;;
12774;SDS011;6451;42.630;23.382;2022-12-11T11:51:14;3.42;;;1.50;;
12774;SDS011;6451;42.630;23.382;2022-12-11T11:53:46;1.50;;;1.27;;
12774;SDS011;6451;42.630;23.382;2022-12-11T11:56:18;2.00;;;1.27;;
12774;SDS011;6451;42.630;23.382;2022-12-11T11:58:50;2.00;;;1.25;;
12774;SDS011;6451;42.630;23.382;2022-12-11T12:01:23;1.58;;;1.30;;
12774;SDS011;6451;42.630;23.382;2022-12-11T12:03:52;2.40;;;1.73;;
12774;SDS011;6451;42.630;23.382;2022-12-11T12:06:25;2.47;;;1.42;;
12774;SDS011;6451;42.630;23.382;2022-12-11T12:09:01;3.20;;;1.58;;
12774;SDS011;6451;42.630;23.382;2022-12-11T12:11:36;2.55;;;1.52;;
12774;SDS011;6451;42.630;23.382;2022-12-11T12:14:12;3.38;;;1.80;;
12774;SDS011;6451;42.630;23.382;2022-12-11T12:16:48;3.40;;;1.70;;
12774;SDS011;6451;42.630;23.382;2022-12-11T12:19:31;3.15;;;1.60;;
12774;SDS011;6451;42.630;23.382;2022-12-11T12:22:08;2.60;;;1.67;;
12774;SDS011;6451;42.630;23.382;2022-12-11T12:24:48;3.15;;;1.70;;
12774;SDS011;6451;42.630;23.382;2022-12-11T12:27:27;4.32;;;1.83;;
12774;SDS011;6451;42.630;23.382;2022-12-11T12:30:01;2.03;;;1.50;;
12774;SDS011;6451;42.630;23.382;2022-12-11T12:32:36;3.90;;;1.90;;
12774;SDS011;6451;42.630;23.382;2022-12-11T12:35:14;6.97;;;2.20;;
12774;SDS011;6451;42.630;23.382;2022-12-11T12:37:50;3.38;;;1.80;;
12774;SDS011;6451;42.630;23.382;2022-12-11T12:40:26;5.03;;;1.40;;
12774;SDS011;6451;42.630;23.382;2022-12-11T12:43:00;6.60;;;2.80;;
12774;SDS011;6451;42.630;23.382;2022-12-11T12:45:47;6.40;;;4.38;;
12774;SDS011;6451;42.630;23.382;2022-12-11T12:48:20;6.25;;;3.33;;
12774;SDS011;6451;42.630;23.382;2022-12-11T12:50:52;4.20;;;2.72;;
12774;SDS011;6451;42.630;23.382;2022-12-11T12:53:22;4.38;;;3.00;;
12774;SDS011;6451;42.630;23.382;2022-12-11T12:55:54;3.57;;;2.70;;
12774;SDS011;6451;42.630;23.382;2022-12-11T12:58:26;3.80;;;2.77;;
12774;SDS011;6451;42.630;23.382;2022-12-11T13:00:54;2.97;;;2.70;;
12774;SDS011;6451;42.630;23.382;2022-12-11T13:03:34;3.20;;;2.40;;
12774;SDS011;6451;42.630;23.382;2022-12-11T13:06:04;2.37;;;1.90;;
12774;SDS011;6451;42.630;23.382;2022-12-11T13:08:35;3.47;;;1.90;;
12774;SDS011;6451;42.630;23.382;2022-12-11T13:11:06;2.87;;;2.20;;
12774;SDS011;6451;42.630;23.382;2022-12-11T13:13:36;2.83;;;2.33;;
12774;SDS011;6451;42.630;23.382;2022-12-11T13:16:05;2.97;;;2.67;;
12774;SDS011;6451;42.630;23.382;2022-12-11T13:18:35;2.47;;;2.27;;
12774;SDS011;6451;42.630;23.382;2022-12-11T13:23:54;2.97;;;2.70;;
12774;SDS011;6451;42.630;23.382;2022-12-11T13:26:32;3.90;;;3.37;;
12774;SDS011;6451;42.630;23.382;2022-12-11T13:28:59;3.07;;;2.77;;
12774;SDS011;6451;42.630;23.382;2022-12-11T13:31:29;3.70;;;2.67;;
12774;SDS011;6451;42.630;23.382;2022-12-11T13:34:06;2.67;;;2.40;;
12774;SDS011;6451;42.630;23.382;2022-12-11T13:36:44;4.67;;;2.53;;
12774;SDS011;6451;42.630;23.382;2022-12-11T13:39:15;2.37;;;2.17;;
12774;SDS011;6451;42.630;23.382;2022-12-11T13:41:44;2.83;;;2.57;;
12774;SDS011;6451;42.630;23.382;2022-12-11T13:44:15;2.63;;;2.33;;
12774;SDS011;6451;42.630;23.382;2022-12-11T13:46:52;2.60;;;2.37;;
12774;SDS011;6451;42.630;23.382;2022-12-11T13:49:22;3.23;;;2.17;;
12774;SDS011;6451;42.630;23.382;2022-12-11T13:51:54;3.60;;;3.03;;
12774;SDS011;6451;42.630;23.382;2022-12-11T13:54:22;3.03;;;2.50;;
12774;SDS011;6451;42.630;23.382;2022-12-11T13:56:57;2.67;;;2.47;;
12774;SDS011;6451;42.630;23.382;2022-12-11T13:59:27;3.03;;;2.50;;
12774;SDS011;6451;42.630;23.382;2022-12-11T14:01:56;4.67;;;2.03;;
12774;SDS011;6451;42.630;23.382;2022-12-11T14:04:26;2.57;;;1.90;;
12774;SDS011;6451;42.630;23.382;2022-12-11T14:07:01;2.13;;;1.90;;
12774;SDS011;6451;42.630;23.382;2022-12-11T14:12:11;2.53;;;1.80;;
12774;SDS011;6451;42.630;23.382;2022-12-11T14:14:44;1.60;;;1.50;;
12774;SDS011;6451;42.630;23.382;2022-12-11T14:17:16;2.40;;;1.90;;
12774;SDS011;6451;42.630;23.382;2022-12-11T14:19:49;3.50;;;1.77;;
12774;SDS011;6451;42.630;23.382;2022-12-11T14:22:19;2.73;;;1.70;;
12774;SDS011;6451;42.630;23.382;2022-12-11T14:24:48;2.03;;;1.50;;
12774;SDS011;6451;42.630;23.382;2022-12-11T14:27:16;2.83;;;1.60;;
12774;SDS011;6451;42.630;23.382;2022-12-11T14:29:44;1.90;;;1.50;;
12774;SDS011;6451;42.630;23.382;2022-12-11T14:32:12;2.23;;;1.40;;
12774;SDS011;6451;42.630;23.382;2022-12-11T14:34:44;1.53;;;1.40;;
12774;SDS011;6451;42.630;23.382;2022-12-11T14:37:14;2.43;;;1.40;;
12774;SDS011;6451;42.630;23.382;2022-12-11T14:39:49;2.67;;;1.30;;
12774;SDS011;6451;42.630;23.382;2022-12-11T14:42:22;1.80;;;1.40;;
12774;SDS011;6451;42.630;23.382;2022-12-11T14:44:53;2.47;;;1.40;;
12774;SDS011;6451;42.630;23.382;2022-12-11T14:47:26;1.53;;;1.30;;
12774;SDS011;6451;42.630;23.382;2022-12-11T14:49:56;2.17;;;1.50;;
12774;SDS011;6451;42.630;23.382;2022-12-11T14:52:29;2.03;;;1.40;;
12774;SDS011;6451;42.630;23.382;2022-12-11T14:55:02;2.03;;;1.50;;
12774;SDS011;6451;42.630;23.382;2022-12-11T14:57:32;1.37;;;1.20;;
12774;SDS011;6451;42.630;23.382;2022-12-11T15:00:03;1.77;;;1.30;;
12774;SDS011;6451;42.630;23.382;2022-12-11T15:02:35;2.20;;;1.10;;
12774;SDS011;6451;42.630;23.382;2022-12-11T15:05:06;2.23;;;1.40;;
12774;SDS011;6451;42.630;23.382;2022-12-11T15:07:39;1.40;;;1.20;;
12774;SDS011;6451;42.630;23.382;2022-12-11T15:12:57;2.13;;;1.53;;